ENRS

Røst Airport

Norway
METAR ENRS 221450Z 22007KT 9999 FEW008 SCT018 BKN045 07/06 Q1012
Observed Flight Rules
Apr-22 @ 14:50 UTC (7 hours ago) Visual Flight Rules
Wind Visibility Clouds
220° at 7 knots 10,000+ meters
  • Few at 800' AGL
  • Scattered at 1,800' AGL
  • Broken at 4,500' AGL
Temperatures Readings
Current 7°C / 45°F
Dewpoint 6°C / 43°F
Humidity 93%
Altimeter 29.88" Hg
Pressure 1012 hPa
Elevation 4
METAR ENRS 221450Z 22007KT 9999 FEW008 SCT018 BKN045 07/06 Q1012
Observed Flight Rules
Apr-22 @ 14:50 UTC
(7 hours ago)
VFR
Wind Visibility
220° at 7 knots 10,000+ meters
Clouds
  • Few at 800' AGL
  • Scattered at 1,800' AGL
  • Broken at 4,500' AGL
Temperature Dewpoint
7°C / 45°F 6°C / 43°F
Humidity Altimeter Pressure
93% 29.88" Hg 1012 hPa